Time;durP1;ratioP1;P1;durP2;ratioP2;P2;SDS_P1;SDS_P2;PMS_P1;PMS_P2;Temp;Humidity;BMP_temperature;BMP_pressure;BME280_temperature;BME280_humidity;BME280_pressure;Samples;Min_cycle;Max_cycle;Signal;HPM_P1;HPM_P2
2021/12/19 00:00:29;;;;;;;7.20;4.38;;;7.80;99.90;;;;;;2126499;66;20191;-72
2021/12/19 00:09:13;;;;;;;11.57;5.55;;;7.80;99.90;;;;;;2118814;67;20326;-69
2021/12/19 00:11:50;;;;;;;10.73;6.28;;;7.70;99.90;;;;;;2126820;67;20208;-71
2021/12/19 00:14:41;;;;;;;11.35;5.35;;;7.80;99.90;;;;;;2140264;66;20401;-69
2021/12/19 00:17:17;;;;;;;11.05;6.07;;;7.80;99.90;;;;;;2139561;66;20403;-70
2021/12/19 00:19:53;;;;;;;8.88;5.35;;;7.80;99.90;;;;;;2145584;66;20335;-71
2021/12/19 00:22:31;;;;;;;12.68;5.43;;;7.80;99.90;;;;;;2163236;65;20610;-70
2021/12/19 00:25:20;;;;;;;8.57;5.07;;;7.80;99.90;;;;;;2150742;65;20234;-70
2021/12/19 00:27:57;;;;;;;11.23;5.13;;;7.80;99.90;;;;;;2173871;65;20242;-71
2021/12/19 00:30:33;;;;;;;9.10;4.65;;;8.00;99.90;;;;;;2174023;65;20438;-71
2021/12/19 00:33:23;;;;;;;9.80;4.28;;;7.90;99.90;;;;;;2165508;65;20224;-71
2021/12/19 00:36:00;;;;;;;8.48;3.92;;;7.80;99.90;;;;;;2170268;65;20373;-69
2021/12/19 00:38:37;;;;;;;12.40;4.35;;;8.70;99.90;;;;;;2199168;65;20790;-71
2021/12/19 00:41:31;;;;;;;8.60;3.20;;;7.80;99.90;;;;;;2183164;65;20236;-70
2021/12/19 00:44:12;;;;;;;3.75;2.03;;;7.80;99.90;;;;;;2185175;65;20319;-72
2021/12/19 00:46:52;;;;;;;5.15;2.50;;;7.80;99.90;;;;;;2180437;65;20237;-70
2021/12/19 00:49:47;;;;;;;2.95;1.70;;;7.80;99.90;;;;;;2172347;65;20275;-70
2021/12/19 00:52:40;;;;;;;3.58;1.50;;;7.70;99.90;;;;;;2180609;65;20599;-70
2021/12/19 00:55:22;;;;;;;10.13;1.23;;;7.70;99.90;;;;;;2178843;65;20898;-70
2021/12/19 00:57:59;;;;;;;4.60;1.02;;;7.70;99.90;;;;;;2184004;65;20318;-70
2021/12/19 01:00:44;;;;;;;2.10;0.82;;;7.70;99.90;;;;;;2176361;65;20256;-71
2021/12/19 01:03:26;;;;;;;4.32;1.05;;;7.60;99.90;;;;;;2182789;65;20277;-70
2021/12/19 01:06:08;;;;;;;5.95;0.90;;;7.60;99.90;;;;;;2175358;65;20233;-69
2021/12/19 01:08:51;;;;;;;0.98;0.60;;;7.60;99.90;;;;;;2161602;66;20262;-70
2021/12/19 01:11:36;;;;;;;2.20;1.15;;;7.50;99.90;;;;;;2167294;65;20258;-70
2021/12/19 01:14:17;;;;;;;2.50;0.95;;;7.50;99.90;;;;;;2159599;66;20202;-69
2021/12/19 01:16:59;;;;;;;1.52;1.00;;;7.50;99.90;;;;;;2143255;66;20693;-69
2021/12/19 01:19:41;;;;;;;2.20;0.65;;;7.50;99.90;;;;;;2141897;66;20229;-70
2021/12/19 01:22:23;;;;;;;1.52;0.60;;;7.40;99.90;;;;;;2139886;66;20218;-71
2021/12/19 01:25:05;;;;;;;0.68;0.65;;;7.40;99.90;;;;;;2126843;67;20788;-70
2021/12/19 01:27:48;;;;;;;1.40;0.50;;;7.30;99.90;;;;;;2118122;67;20458;-69
2021/12/19 01:30:32;;;;;;;1.25;0.50;;;7.40;99.90;;;;;;2114791;67;20374;-70
2021/12/19 01:33:13;;;;;;;2.65;0.68;;;7.30;99.90;;;;;;2115569;67;20435;-70
2021/12/19 01:35:55;;;;;;;1.13;0.80;;;7.30;99.90;;;;;;2096895;68;20265;-69
2021/12/19 01:38:36;;;;;;;2.38;0.75;;;7.40;99.90;;;;;;2090285;68;20316;-69
2021/12/19 01:41:20;;;;;;;0.70;0.40;;;7.40;99.90;;;;;;2089530;68;20206;-69
2021/12/19 01:44:04;;;;;;;2.00;1.10;;;7.40;99.90;;;;;;2082269;68;20211;-70
2021/12/19 01:46:48;;;;;;;3.08;0.70;;;7.40;99.90;;;;;;2103584;68;20368;-69
2021/12/19 01:49:32;;;;;;;2.40;1.15;;;7.40;99.90;;;;;;2108567;67;20185;-70
2021/12/19 01:52:14;;;;;;;2.15;1.23;;;7.40;99.90;;;;;;2102647;68;20182;-70
2021/12/19 01:54:58;;;;;;;3.67;1.42;;;7.50;99.90;;;;;;2102640;68;20819;-68
2021/12/19 01:57:43;;;;;;;3.30;1.40;;;7.50;99.90;;;;;;2112468;67;20337;-71
2021/12/19 02:00:31;;;;;;;1.77;1.20;;;7.40;99.90;;;;;;2100648;67;20215;-69
2021/12/19 02:03:14;;;;;;;2.90;1.00;;;7.70;99.90;;;;;;2095476;68;20298;-69
2021/12/19 02:05:56;;;;;;;1.20;0.70;;;7.40;99.90;;;;;;2114437;67;20264;-69
2021/12/19 02:08:38;;;;;;;1.45;0.85;;;7.30;99.90;;;;;;2125273;67;20349;-70
2021/12/19 02:11:19;;;;;;;1.88;0.70;;;7.30;99.90;;;;;;2131692;66;20254;-69
2021/12/19 02:14:02;;;;;;;2.92;0.70;;;7.30;99.90;;;;;;2123724;67;20204;-70
2021/12/19 02:16:43;;;;;;;2.30;0.60;;;7.30;99.90;;;;;;2110190;67;20295;-70
2021/12/19 02:19:25;;;;;;;1.65;0.60;;;7.30;99.90;;;;;;2103336;68;20364;-69
2021/12/19 02:22:07;;;;;;;3.28;0.60;;;7.30;99.90;;;;;;2110328;67;20407;-71
2021/12/19 02:24:48;;;;;;;1.33;0.60;;;7.30;99.90;;;;;;2120053;67;20199;-71
2021/12/19 02:27:32;;;;;;;1.40;0.52;;;7.20;99.90;;;;;;2120876;67;20363;-70
2021/12/19 02:30:17;;;;;;;2.63;0.70;;;7.20;99.90;;;;;;2133385;67;20333;-72
2021/12/19 02:33:11;;;;;;;1.50;0.45;;;7.10;99.90;;;;;;2132079;67;20371;-70
2021/12/19 02:36:18;;;;;;;2.13;0.52;;;7.10;99.90;;;;;;2132903;67;20545;-70
2021/12/19 02:48:13;;;;;;;3.65;0.73;;;7.10;99.90;;;;;;2152228;66;20331;-69
2021/12/19 02:50:58;;;;;;;3.10;0.80;;;7.00;99.90;;;;;;2138992;66;20234;-69
2021/12/19 02:53:41;;;;;;;4.18;1.25;;;6.90;99.90;;;;;;2131669;67;20365;-69
2021/12/19 02:56:23;;;;;;;3.70;0.98;;;7.00;99.90;;;;;;2134279;66;20195;-69
2021/12/19 02:59:08;;;;;;;2.33;0.80;;;7.00;99.90;;;;;;2136417;67;20746;-69
2021/12/19 03:01:50;;;;;;;5.85;0.95;;;6.90;99.90;;;;;;2137951;66;20271;-69
2021/12/19 03:04:31;;;;;;;2.67;1.17;;;6.90;99.90;;;;;;2143476;66;20316;-68
2021/12/19 03:07:14;;;;;;;2.78;1.08;;;6.90;99.90;;;;;;2140815;66;20190;-69
2021/12/19 03:18:32;;;;;;;2.95;1.25;;;7.00;99.90;;;;;;2129664;67;20271;-69
2021/12/19 03:21:18;;;;;;;6.35;1.50;;;7.00;99.90;;;;;;2145063;66;20372;-69
2021/12/19 03:24:00;;;;;;;3.28;1.13;;;7.00;99.90;;;;;;2139106;66;20182;-68
2021/12/19 03:26:42;;;;;;;3.25;1.20;;;7.00;99.90;;;;;;2126032;67;20290;-69
2021/12/19 03:29:23;;;;;;;3.90;1.50;;;7.00;99.90;;;;;;2122956;67;20357;-69
2021/12/19 03:32:07;;;;;;;4.65;1.38;;;6.90;99.90;;;;;;2126294;67;20362;-69
2021/12/19 03:34:52;;;;;;;4.18;1.38;;;7.00;99.90;;;;;;2147867;65;20256;-69
2021/12/19 03:37:33;;;;;;;3.00;1.42;;;6.90;99.90;;;;;;2145658;66;20344;-69
2021/12/19 03:40:23;;;;;;;3.70;1.40;;;6.90;99.90;;;;;;2151412;66;20340;-69
2021/12/19 03:43:15;;;;;;;2.67;1.67;;;7.00;99.90;;;;;;2152388;66;20343;-69
2021/12/19 03:45:57;;;;;;;7.32;1.42;;;7.00;99.90;;;;;;2150988;66;20241;-69
2021/12/19 03:48:39;;;;;;;3.88;1.38;;;7.00;99.90;;;;;;2138793;66;20457;-69
2021/12/19 03:51:20;;;;;;;2.22;1.20;;;7.00;99.90;;;;;;2134522;67;20220;-68
2021/12/19 03:54:02;;;;;;;2.95;1.10;;;7.00;99.90;;;;;;2148816;66;20736;-69
2021/12/19 03:56:45;;;;;;;4.32;1.20;;;7.00;99.90;;;;;;2149996;66;20259;-69
2021/12/19 03:59:31;;;;;;;1.90;1.05;;;7.00;99.90;;;;;;2139118;66;20408;-69
2021/12/19 04:02:13;;;;;;;5.35;1.42;;;7.00;99.90;;;;;;2123529;67;20332;-69
2021/12/19 04:04:58;;;;;;;5.47;1.63;;;7.10;99.90;;;;;;2122090;67;20272;-68
2021/12/19 04:07:40;;;;;;;;;;;7.00;99.90;;;;;;2139078;66;20197;-70
2021/12/19 04:10:22;;;;;;;7.78;2.00;;;7.10;99.90;;;;;;2146983;66;20215;-69
2021/12/19 04:13:07;;;;;;;3.63;1.95;;;7.10;99.90;;;;;;2139254;66;20272;-69
2021/12/19 04:15:51;;;;;;;4.32;2.28;;;7.10;99.90;;;;;;2138986;66;20179;-68
2021/12/19 04:18:33;;;;;;;7.35;3.03;;;7.10;99.90;;;;;;2136801;67;20686;-69
2021/12/19 04:21:15;;;;;;;10.95;3.20;;;7.10;99.90;;;;;;2124772;67;20280;-69
2021/12/19 04:23:57;;;;;;;8.40;3.30;;;7.10;99.90;;;;;;2129401;67;21169;-69
2021/12/19 04:26:42;;;;;;;7.45;3.25;;;7.10;99.90;;;;;;2143329;66;20374;-69
2021/12/19 04:29:26;;;;;;;12.40;4.30;;;7.10;99.90;;;;;;2161426;66;20369;-69
2021/12/19 04:32:17;;;;;;;14.65;4.90;;;7.20;99.90;;;;;;2139227;66;20508;-69
2021/12/19 04:35:01;;;;;;;14.50;4.30;;;7.20;99.90;;;;;;2153490;66;20173;-69
2021/12/19 05:01:35;;;;;;;15.32;5.40;;;7.40;99.90;;;;;;2092606;68;20224;-68
2021/12/19 05:04:41;;;;;;;12.88;5.82;;;7.40;99.90;;;;;;2086576;68;20611;-68
2021/12/19 05:16:22;;;;;;;15.15;6.13;;;7.40;99.90;;;;;;2124434;67;20375;-68
2021/12/19 05:19:18;;;;;;;20.30;7.63;;;7.40;99.90;;;;;;2128521;67;20353;-70
2021/12/19 05:22:02;;;;;;;;;;;7.40;99.90;;;;;;2126307;67;20176;-69
2021/12/19 05:24:49;;;;;;;11.55;5.88;;;7.40;99.90;;;;;;2124746;66;20577;-70
2021/12/19 05:27:30;;;;;;;16.67;7.30;;;6.90;99.90;;;;;;2138627;66;20396;-69
2021/12/19 05:30:14;;;;;;;16.42;7.55;;;7.40;99.90;;;;;;2142580;66;20219;-69
2021/12/19 05:32:56;;;;;;;16.15;7.35;;;7.40;99.90;;;;;;2135525;66;20323;-68
2021/12/19 05:47:37;;;;;;;14.23;5.70;;;7.40;99.90;;;;;;2100581;67;20178;-69
2021/12/19 05:50:21;;;;;;;14.27;5.72;;;7.40;99.90;;;;;;2107543;67;21008;-68
2021/12/19 05:53:06;;;;;;;17.05;5.90;;;7.60;99.90;;;;;;2110780;67;20224;-69
2021/12/19 05:55:47;;;;;;;17.67;5.78;;;7.40;99.90;;;;;;2117468;67;20628;-69
2021/12/19 05:58:29;;;;;;;14.55;6.88;;;7.40;99.90;;;;;;2118207;67;20818;-69
2021/12/19 06:01:13;;;;;;;11.07;4.78;;;7.40;99.90;;;;;;2121414;67;20589;-69
2021/12/19 06:03:57;;;;;;;12.43;5.10;;;7.40;99.90;;;;;;2117458;67;20332;-68
2021/12/19 06:06:39;;;;;;;14.65;4.72;;;7.50;99.90;;;;;;2117725;67;20260;-69
2021/12/19 06:09:22;;;;;;;10.23;4.60;;;7.40;99.90;;;;;;2117246;67;20399;-68
2021/12/19 06:12:08;;;;;;;14.77;5.13;;;7.40;99.90;;;;;;2122806;67;20314;-69
2021/12/19 06:14:49;;;;;;;;;;;7.40;99.90;;;;;;2112076;67;20325;-69
2021/12/19 06:17:31;;;;;;;11.55;5.57;;;7.40;99.90;;;;;;2111116;67;20054;-69
2021/12/19 06:20:16;;;;;;;11.23;4.85;;;7.40;99.90;;;;;;2113998;67;20228;-70
2021/12/19 06:23:07;;;;;;;11.98;5.53;;;7.40;99.90;;;;;;2116130;67;20811;-69
2021/12/19 06:25:53;;;;;;;13.75;5.32;;;7.40;99.90;;;;;;2117215;67;20423;-69
2021/12/19 06:28:42;;;;;;;11.38;4.88;;;7.40;99.90;;;;;;2118167;67;20414;-69
2021/12/19 06:31:41;;;;;;;17.67;5.25;;;6.80;99.90;;;;;;2126484;67;20340;-70
2021/12/19 06:34:28;;;;;;;13.40;5.20;;;7.40;99.90;;;;;;2146180;66;20303;-71
2021/12/19 06:37:19;;;;;;;8.73;4.20;;;7.50;99.90;;;;;;2146194;66;20258;-70
2021/12/19 06:40:04;;;;;;;12.52;3.97;;;7.50;99.90;;;;;;2143333;66;20279;-69
2021/12/19 06:42:47;;;;;;;19.67;4.95;;;7.40;99.90;;;;;;2144905;66;21448;-69
2021/12/19 06:45:31;;;;;;;10.27;3.50;;;7.40;99.90;;;;;;2141599;66;20194;-69
2021/12/19 06:48:13;;;;;;;10.05;3.72;;;7.50;99.90;;;;;;2147844;66;20646;-69
2021/12/19 06:50:55;;;;;;;12.60;4.13;;;7.40;99.90;;;;;;2142174;66;20230;-69
2021/12/19 06:53:39;;;;;;;8.00;3.35;;;7.40;99.90;;;;;;2147004;66;20227;-70
2021/12/19 06:56:31;;;;;;;7.80;3.70;;;7.40;99.90;;;;;;2138547;66;20838;-69
2021/12/19 06:59:15;;;;;;;9.00;3.85;;;7.40;99.90;;;;;;2131034;67;20449;-70
2021/12/19 07:01:59;;;;;;;11.82;3.33;;;7.40;99.90;;;;;;2130914;67;20677;-69
2021/12/19 07:04:41;;;;;;;10.40;3.60;;;7.40;99.90;;;;;;2124383;67;20353;-69
2021/12/19 07:07:23;;;;;;;20.00;3.92;;;7.40;99.90;;;;;;2123652;67;20686;-69
2021/12/19 07:10:08;;;;;;;10.40;3.28;;;7.40;99.90;;;;;;2132082;66;20340;-68
2021/12/19 07:12:50;;;;;;;10.55;4.82;;;7.40;99.90;;;;;;2138184;66;20753;-69
2021/12/19 07:15:33;;;;;;;12.65;3.65;;;7.40;99.90;;;;;;2135500;66;20945;-68
2021/12/19 07:18:22;;;;;;;10.30;3.60;;;7.40;99.90;;;;;;2123555;67;20298;-69
2021/12/19 07:21:10;;;;;;;13.02;3.47;;;7.50;99.90;;;;;;2125167;67;20771;-70
2021/12/19 07:23:56;;;;;;;12.13;3.33;;;7.40;99.90;;;;;;2111522;67;20211;-69
2021/12/19 07:26:41;;;;;;;9.18;3.40;;;7.50;99.90;;;;;;2118602;67;20712;-70
2021/12/19 07:29:29;;;;;;;12.13;3.17;;;7.40;99.90;;;;;;2117018;67;20283;-68
2021/12/19 07:32:13;;;;;;;10.63;3.58;;;7.50;99.90;;;;;;2125005;67;20265;-69
2021/12/19 07:34:57;;;;;;;11.60;3.95;;;7.50;99.90;;;;;;2127439;67;20182;-68
2021/12/19 07:37:41;;;;;;;13.95;3.92;;;7.50;99.90;;;;;;2134268;66;20170;-68
2021/12/19 07:40:35;;;;;;;12.15;3.13;;;7.40;99.90;;;;;;2130776;67;20271;-69
2021/12/19 07:43:21;;;;;;;13.25;3.53;;;7.50;99.90;;;;;;2128110;67;20231;-70
2021/12/19 07:46:07;;;;;;;11.50;3.10;;;7.50;99.90;;;;;;2133972;67;20243;-70
2021/12/19 07:48:52;;;;;;;16.02;3.63;;;7.50;99.90;;;;;;2123130;67;20828;-70
2021/12/19 07:51:36;;;;;;;10.93;3.83;;;7.50;99.90;;;;;;2127613;67;20810;-68
2021/12/19 07:54:18;;;;;;;15.15;3.25;;;7.50;99.90;;;;;;2129538;67;20242;-69
2021/12/19 07:57:01;;;;;;;9.25;2.95;;;8.10;99.90;;;;;;2116733;67;20269;-68
2021/12/19 07:59:42;;;;;;;11.07;3.50;;;7.50;99.90;;;;;;2124211;67;20203;-70
2021/12/19 08:02:27;;;;;;;12.82;3.42;;;7.60;99.90;;;;;;2122572;67;20755;-69
2021/12/19 08:05:09;;;;;;;11.00;3.20;;;7.60;99.90;;;;;;2113625;67;20233;-69
2021/12/19 08:07:56;;;;;;;17.25;3.63;;;7.60;99.90;;;;;;2101415;68;20423;-70
2021/12/19 08:13:19;;;;;;;8.38;3.20;;;7.70;99.90;;;;;;2110244;67;20213;-69
2021/12/19 08:16:01;;;;;;;14.18;3.40;;;7.60;99.90;;;;;;2109673;67;20189;-69
2021/12/19 08:18:43;;;;;;;11.20;3.50;;;7.60;99.90;;;;;;2109476;67;20365;-69
2021/12/19 08:21:24;;;;;;;13.48;3.85;;;7.60;99.90;;;;;;2108635;67;20177;-69
2021/12/19 08:24:11;;;;;;;11.18;3.75;;;7.60;99.90;;;;;;2113354;67;20479;-69
2021/12/19 08:26:53;;;;;;;11.68;4.13;;;7.60;99.90;;;;;;2102794;67;20241;-69
2021/12/19 08:29:34;;;;;;;13.75;4.63;;;7.60;99.90;;;;;;2096106;68;20740;-69
2021/12/19 08:32:17;;;;;;;14.73;4.50;;;7.60;99.90;;;;;;2114371;67;20400;-70
2021/12/19 08:35:01;;;;;;;9.95;3.53;;;7.60;99.90;;;;;;2116982;67;20180;-70
2021/12/19 08:37:43;;;;;;;12.27;3.85;;;7.70;99.90;;;;;;2123447;67;20236;-69
2021/12/19 08:40:26;;;;;;;14.55;5.07;;;7.60;99.90;;;;;;2128322;67;20715;-69
2021/12/19 08:43:09;;;;;;;13.98;3.92;;;7.60;99.90;;;;;;2115963;67;20503;-69
2021/12/19 08:45:53;;;;;;;12.65;3.28;;;7.60;99.90;;;;;;2128747;67;20236;-69
2021/12/19 08:48:36;;;;;;;12.18;3.63;;;7.60;99.90;;;;;;2142064;66;20354;-70
2021/12/19 08:51:18;;;;;;;11.27;4.13;;;7.60;99.90;;;;;;2135612;67;20183;-69
2021/12/19 08:54:00;;;;;;;10.48;3.00;;;7.60;99.90;;;;;;2124250;67;20378;-70
2021/12/19 08:56:42;;;;;;;14.65;3.20;;;7.60;99.90;;;;;;2119993;67;20200;-69
2021/12/19 08:59:26;;;;;;;11.63;3.88;;;7.60;99.90;;;;;;2139651;66;20257;-69
2021/12/19 09:02:11;;;;;;;11.75;3.30;;;7.70;99.90;;;;;;2140932;66;20201;-68
2021/12/19 09:04:53;;;;;;;;;;;7.60;99.90;;;;;;2128375;67;20636;-69
2021/12/19 09:07:34;;;;;;;10.70;3.10;;;7.70;99.90;;;;;;2138183;66;20146;-69
2021/12/19 09:10:16;;;;;;;10.50;3.30;;;7.70;99.90;;;;;;2129680;67;20171;-69
2021/12/19 09:12:59;;;;;;;11.90;4.00;;;7.70;99.90;;;;;;2119895;67;20259;-69
2021/12/19 09:15:50;;;;;;;11.95;3.13;;;7.70;99.90;;;;;;2145966;66;20343;-72
2021/12/19 09:18:34;;;;;;;6.90;2.95;;;7.70;99.90;;;;;;2147777;66;20306;-68
2021/12/19 09:21:18;;;;;;;15.32;3.85;;;7.70;99.90;;;;;;2152559;66;21056;-69
2021/12/19 09:24:00;;;;;;;13.50;3.58;;;7.70;99.90;;;;;;2145948;66;20271;-70
2021/12/19 09:26:42;;;;;;;9.65;3.03;;;7.70;99.90;;;;;;2151522;66;20368;-69
2021/12/19 09:29:28;;;;;;;12.48;3.22;;;7.90;99.90;;;;;;2157317;66;20197;-69
2021/12/19 09:32:09;;;;;;;;;;;7.80;99.90;;;;;;2153892;66;20346;-69
2021/12/19 09:34:51;;;;;;;13.30;3.83;;;7.80;99.90;;;;;;2153415;66;20065;-68
2021/12/19 09:37:35;;;;;;;10.88;4.10;;;7.80;99.90;;;;;;2155088;66;20346;-70
2021/12/19 09:40:23;;;;;;;10.82;4.10;;;7.80;99.90;;;;;;2149908;66;20185;-70
2021/12/19 09:43:41;;;;;;;14.57;3.80;;;7.90;99.90;;;;;;2144168;66;20192;-69
2021/12/19 09:46:28;;;;;;;16.35;4.38;;;7.90;99.90;;;;;;2164249;66;20267;-69
2021/12/19 09:49:12;;;;;;;11.93;3.20;;;7.80;99.90;;;;;;2162751;65;20811;-69
2021/12/19 09:51:55;;;;;;;18.20;4.68;;;7.90;99.90;;;;;;2170053;65;20764;-70
2021/12/19 09:55:16;;;;;;;9.65;2.97;;;7.90;99.90;;;;;;2155933;66;20202;-70
2021/12/19 09:57:59;;;;;;;18.65;4.07;;;8.00;99.90;;;;;;2141249;66;20214;-68
2021/12/19 10:00:53;;;;;;;10.38;2.92;;;7.90;99.90;;;;;;2127711;67;20191;-68
2021/12/19 10:03:35;;;;;;;19.23;3.67;;;8.00;99.90;;;;;;2108384;67;20309;-68
2021/12/19 10:06:27;;;;;;;16.40;4.28;;;8.00;99.90;;;;;;2121414;67;20669;-69
2021/12/19 10:09:15;;;;;;;9.18;3.10;;;8.00;99.90;;;;;;2116676;67;20239;-69
2021/12/19 10:12:23;;;;;;;17.95;3.88;;;8.10;99.90;;;;;;2122244;67;20329;-69
2021/12/19 10:15:18;;;;;;;8.05;2.50;;;8.10;99.90;;;;;;2117059;67;20298;-69
2021/12/19 10:18:07;;;;;;;7.93;2.55;;;8.10;99.90;;;;;;2096150;68;20365;-69
2021/12/19 10:21:08;;;;;;;10.43;2.80;;;8.10;99.90;;;;;;2102770;68;20274;-69
2021/12/19 10:24:03;;;;;;;16.05;3.70;;;8.10;99.90;;;;;;2111351;67;20178;-70
2021/12/19 10:26:44;;;;;;;7.68;2.63;;;8.20;99.90;;;;;;2126218;67;20257;-69
2021/12/19 10:29:42;;;;;;;7.35;2.67;;;8.20;99.90;;;;;;2132374;67;20327;-68
2021/12/19 10:32:24;;;;;;;7.75;2.30;;;8.20;99.90;;;;;;2117067;67;20690;-70
2021/12/19 10:35:27;;;;;;;10.52;2.65;;;8.20;99.90;;;;;;2138988;66;20216;-70
2021/12/19 10:38:22;;;;;;;6.95;2.58;;;8.20;99.90;;;;;;2137934;66;20735;-69
2021/12/19 10:41:13;;;;;;;8.75;2.80;;;8.20;99.90;;;;;;2137612;66;20219;-69
2021/12/19 10:46:48;;;;;;;8.75;2.53;;;8.30;99.90;;;;;;2130674;67;20829;-70
2021/12/19 10:49:48;;;;;;;9.40;2.15;;;8.40;99.90;;;;;;2136250;66;20263;-70
2021/12/19 10:52:41;;;;;;;11.65;2.67;;;8.40;99.90;;;;;;2154006;66;20196;-68
2021/12/19 10:55:28;;;;;;;10.13;2.17;;;8.40;99.90;;;;;;2153218;66;20419;-68
2021/12/19 10:58:27;;;;;;;11.45;2.67;;;8.50;99.90;;;;;;2157460;66;20284;-67
2021/12/19 11:01:14;;;;;;;11.95;2.92;;;8.40;99.90;;;;;;2173210;65;20231;-68
2021/12/19 11:04:03;;;;;;;12.32;3.17;;;8.50;99.90;;;;;;2163836;65;20180;-68
2021/12/19 11:06:52;;;;;;;10.52;3.28;;;8.50;99.90;;;;;;2163576;65;20219;-69
2021/12/19 11:09:38;;;;;;;9.07;2.58;;;8.50;99.90;;;;;;2149319;66;20324;-68
2021/12/19 11:12:20;;;;;;;8.32;3.03;;;8.50;99.90;;;;;;2153860;66;20219;-69
2021/12/19 11:15:02;;;;;;;13.38;2.78;;;8.50;99.90;;;;;;2144367;66;20170;-68
2021/12/19 11:17:44;;;;;;;11.85;3.05;;;8.50;99.90;;;;;;2135827;67;20329;-69
2021/12/19 11:20:26;;;;;;;11.52;3.38;;;8.50;99.90;;;;;;2132820;66;20354;-69
2021/12/19 11:23:08;;;;;;;12.07;2.58;;;8.50;99.90;;;;;;2134965;66;20980;-69
2021/12/19 11:25:50;;;;;;;15.23;3.50;;;8.50;99.90;;;;;;2150425;66;20296;-70
2021/12/19 11:28:33;;;;;;;13.30;3.20;;;8.50;99.90;;;;;;2148812;66;20284;-68
2021/12/19 11:31:15;;;;;;;16.20;3.53;;;8.50;99.90;;;;;;2143044;66;20219;-69
2021/12/19 11:34:25;;;;;;;9.90;2.88;;;8.50;99.90;;;;;;2131568;67;20187;-68
2021/12/19 11:37:06;;;;;;;12.15;4.05;;;8.60;99.90;;;;;;2131362;67;20179;-69
2021/12/19 11:39:51;;;;;;;11.20;3.58;;;8.60;99.90;;;;;;2124069;67;20238;-69
2021/12/19 11:42:54;;;;;;;13.48;3.65;;;8.60;99.90;;;;;;2123997;67;20224;-67
2021/12/19 11:45:43;;;;;;;18.80;3.97;;;8.60;99.90;;;;;;2107873;67;20394;-68
2021/12/19 11:48:34;;;;;;;17.67;3.83;;;9.50;99.90;;;;;;2102916;67;20185;-69
2021/12/19 11:51:24;;;;;;;14.65;3.20;;;8.60;99.90;;;;;;2100276;67;20295;-68
2021/12/19 11:54:18;;;;;;;13.13;3.85;;;8.70;99.90;;;;;;2101958;67;20193;-69
2021/12/19 11:57:10;;;;;;;9.10;3.63;;;8.60;99.90;;;;;;2116073;67;20173;-68
2021/12/19 12:00:31;;;;;;;7.88;3.15;;;8.70;99.90;;;;;;2112682;67;20313;-69
2021/12/19 12:03:12;;;;;;;14.70;3.55;;;8.70;99.90;;;;;;2106524;67;20397;-68
2021/12/19 12:06:16;;;;;;;12.77;3.10;;;8.70;99.90;;;;;;2106368;67;20186;-68
2021/12/19 12:09:25;;;;;;;15.98;3.40;;;8.70;99.90;;;;;;2114324;67;20180;-70
2021/12/19 12:12:14;;;;;;;18.58;3.67;;;8.70;99.90;;;;;;2137677;67;20228;-69
2021/12/19 12:14:59;;;;;;;17.67;3.78;;;8.80;99.90;;;;;;2130859;67;20479;-68
2021/12/19 12:17:48;;;;;;;17.67;4.05;;;8.80;99.90;;;;;;2145385;66;20413;-69
2021/12/19 12:20:32;;;;;;;11.70;3.35;;;8.80;99.90;;;;;;2145496;66;20284;-68
2021/12/19 12:23:26;;;;;;;12.18;3.55;;;8.80;99.90;;;;;;2153785;66;20798;-68
2021/12/19 12:26:30;;;;;;;13.68;3.53;;;8.90;99.90;;;;;;2152001;66;20596;-68
2021/12/19 12:29:12;;;;;;;10.95;3.30;;;8.80;99.90;;;;;;2145752;66;20224;-69
2021/12/19 12:31:54;;;;;;;10.55;3.33;;;8.80;99.90;;;;;;2132178;67;20394;-69
2021/12/19 12:34:38;;;;;;;15.38;3.85;;;8.80;99.90;;;;;;2144864;66;20709;-68
2021/12/19 12:37:20;;;;;;;13.73;3.17;;;8.80;99.90;;;;;;2128748;67;20197;-68
2021/12/19 12:40:15;;;;;;;11.68;2.92;;;8.80;99.90;;;;;;2127644;67;20208;-68
2021/12/19 12:43:09;;;;;;;15.30;3.25;;;8.80;99.90;;;;;;2116788;67;20206;-68
2021/12/19 12:45:52;;;;;;;11.68;3.85;;;8.80;99.90;;;;;;2107086;67;20206;-68
2021/12/19 12:48:40;;;;;;;18.25;3.47;;;8.70;99.90;;;;;;2112469;67;20434;-68
2021/12/19 12:51:31;;;;;;;13.90;3.50;;;8.70;99.90;;;;;;2114156;67;20330;-68
2021/12/19 12:54:25;;;;;;;12.18;3.20;;;8.70;99.90;;;;;;2122677;67;20310;-68
2021/12/19 12:57:10;;;;;;;11.80;3.75;;;8.70;99.90;;;;;;2118860;67;20263;-68
2021/12/19 12:59:57;;;;;;;12.35;3.05;;;8.70;99.90;;;;;;2115169;67;20384;-70
2021/12/19 13:02:44;;;;;;;16.52;3.33;;;8.60;99.90;;;;;;2114583;67;20377;-68
2021/12/19 13:05:27;;;;;;;9.07;3.30;;;8.60;99.90;;;;;;2128669;67;20192;-69
2021/12/19 13:08:20;;;;;;;19.13;4.10;;;8.60;99.90;;;;;;2135301;66;20222;-69
2021/12/19 13:11:03;;;;;;;14.90;3.65;;;8.60;99.90;;;;;;2146356;66;20733;-69
2021/12/19 13:13:49;;;;;;;8.45;2.60;;;8.60;99.90;;;;;;2141818;66;20223;-68
2021/12/19 13:16:50;;;;;;;;;;;8.60;99.90;;;;;;2156343;66;20374;-69
2021/12/19 13:19:37;;;;;;;18.20;3.85;;;8.60;99.90;;;;;;2152313;66;20252;-68
2021/12/19 13:22:27;;;;;;;9.23;2.90;;;8.60;99.90;;;;;;2137369;66;20776;-70
2021/12/19 13:25:25;;;;;;;13.77;2.88;;;8.50;99.90;;;;;;2126096;67;20543;-69
2021/12/19 13:28:27;;;;;;;6.78;2.58;;;8.60;99.90;;;;;;2127212;67;21069;-70
2021/12/19 13:31:09;;;;;;;13.98;3.08;;;8.60;99.90;;;;;;2127824;67;20199;-68
2021/12/19 13:34:10;;;;;;;14.43;3.70;;;8.60;99.90;;;;;;2119867;67;20275;-69
2021/12/19 13:37:05;;;;;;;19.75;3.05;;;8.70;99.90;;;;;;2107693;67;20193;-69
2021/12/19 13:39:58;;;;;;;18.40;3.75;;;8.70;99.90;;;;;;2107355;67;20484;-69
2021/12/19 13:42:55;;;;;;;16.05;3.50;;;8.70;99.90;;;;;;2087639;68;20183;-69
2021/12/19 13:45:45;;;;;;;;;;;8.70;99.90;;;;;;2097736;68;20191;-69
2021/12/19 13:48:31;;;;;;;14.10;3.22;;;8.70;99.90;;;;;;2103879;67;20084;-69
2021/12/19 13:51:39;;;;;;;12.40;3.70;;;9.40;99.90;;;;;;2112696;67;20409;-69
2021/12/19 13:54:28;;;;;;;11.20;3.75;;;8.70;99.90;;;;;;2116442;67;20365;-67
2021/12/19 13:57:20;;;;;;;13.27;3.55;;;8.80;99.90;;;;;;2133098;66;20255;-68
2021/12/19 14:00:11;;;;;;;11.00;2.95;;;8.70;99.90;;;;;;2130663;67;20727;-68
2021/12/19 14:02:52;;;;;;;11.73;2.47;;;8.70;99.90;;;;;;2123021;67;20314;-68
2021/12/19 14:05:47;;;;;;;10.63;2.45;;;8.70;99.90;;;;;;2116719;67;20726;-69
2021/12/19 14:08:32;;;;;;;11.23;2.88;;;8.60;99.90;;;;;;2129593;67;20763;-69
2021/12/19 14:11:19;;;;;;;11.50;2.63;;;8.60;99.90;;;;;;2127654;67;20278;-69
2021/12/19 14:14:24;;;;;;;10.27;2.47;;;8.60;99.90;;;;;;2130715;67;20302;-69
2021/12/19 14:17:09;;;;;;;;;;;8.60;99.90;;;;;;2124181;67;20169;-70
2021/12/19 14:20:00;;;;;;;7.35;2.45;;;8.60;99.90;;;;;;2121823;67;20737;-68
2021/12/19 14:22:42;;;;;;;12.18;2.15;;;8.60;99.90;;;;;;2119518;67;20682;-70
2021/12/19 14:25:33;;;;;;;20.35;3.00;;;8.50;99.90;;;;;;2132918;66;20263;-69
2021/12/19 14:28:26;;;;;;;8.25;2.00;;;8.50;99.90;;;;;;2130499;67;20351;-69
2021/12/19 14:31:11;;;;;;;10.48;2.45;;;8.50;99.90;;;;;;2134972;66;20408;-69
2021/12/19 14:33:55;;;;;;;8.10;2.47;;;8.50;99.90;;;;;;2133417;66;20334;-69
2021/12/19 14:36:37;;;;;;;8.23;1.85;;;8.40;99.90;;;;;;2151568;66;20369;-70
2021/12/19 14:39:27;;;;;;;5.78;1.88;;;8.40;99.90;;;;;;2131500;67;20273;-69
2021/12/19 14:42:46;;;;;;;5.65;2.22;;;8.50;99.90;;;;;;2110543;67;20326;-69
2021/12/19 14:45:48;;;;;;;9.25;2.08;;;8.40;99.90;;;;;;2115897;67;20567;-69
2021/12/19 14:48:42;;;;;;;4.10;1.85;;;8.30;99.90;;;;;;2113043;67;20466;-70
2021/12/19 14:51:29;;;;;;;8.43;1.88;;;8.30;99.90;;;;;;2118502;67;20315;-70
2021/12/19 14:54:11;;;;;;;6.75;1.48;;;8.30;99.90;;;;;;2119435;67;20196;-68
2021/12/19 14:56:53;;;;;;;9.10;2.70;;;8.30;99.90;;;;;;2109953;67;20346;-69
2021/12/19 14:59:35;;;;;;;9.40;1.75;;;8.20;99.90;;;;;;2107564;67;20315;-69
2021/12/19 15:02:17;;;;;;;6.82;1.40;;;8.20;99.90;;;;;;2091963;68;20377;-68
2021/12/19 15:05:00;;;;;;;2.75;0.80;;;8.20;99.90;;;;;;2094678;68;20319;-69
2021/12/19 15:07:44;;;;;;;8.25;1.50;;;7.70;99.90;;;;;;2101642;67;20237;-70
2021/12/19 15:10:26;;;;;;;6.22;1.55;;;8.20;99.90;;;;;;1874927;68;15093675;-68
2021/12/19 15:13:07;;;;;;;3.85;1.30;;;8.20;99.90;;;;;;2101406;67;20174;-70
2021/12/19 15:15:51;;;;;;;7.85;1.55;;;8.20;99.90;;;;;;2105172;67;20931;-70
2021/12/19 15:18:38;;;;;;;7.05;1.30;;;8.10;99.90;;;;;;2109050;67;20273;-68
2021/12/19 15:21:25;;;;;;;10.07;2.60;;;8.10;99.90;;;;;;2104817;67;20233;-74
2021/12/19 15:24:32;;;;;;;3.78;0.95;;;8.10;99.90;;;;;;2111144;67;20346;-74
2021/12/19 15:27:18;;;;;;;9.10;1.52;;;8.10;99.90;;;;;;2118710;67;20201;-75
2021/12/19 15:30:00;;;;;;;4.53;1.40;;;8.10;99.90;;;;;;2126942;67;21108;-76
2021/12/19 15:32:41;;;;;;;6.10;1.50;;;8.10;99.90;;;;;;2131372;67;20287;-72
2021/12/19 15:35:23;;;;;;;6.93;2.42;;;8.10;99.90;;;;;;2125249;67;20223;-74
2021/12/19 15:38:05;;;;;;;10.50;2.08;;;8.10;99.90;;;;;;2138797;66;20217;-75
2021/12/19 15:41:04;;;;;;;4.95;2.33;;;8.10;99.90;;;;;;2138941;66;20366;-72
2021/12/19 15:43:47;;;;;;;4.13;1.40;;;8.10;99.90;;;;;;2148506;66;20225;-74
2021/12/19 15:46:30;;;;;;;6.65;1.98;;;8.10;99.90;;;;;;2150079;66;20213;-70